createdAt,value
2022-10-10T00:03:32.843Z,0.40
2022-10-10T00:08:37.953Z,0.50
2022-10-10T00:13:42.168Z,0.47
2022-10-10T00:18:45.974Z,0.60
2022-10-10T00:23:50.928Z,0.40
2022-10-10T00:28:54.450Z,0.50
2022-10-10T00:33:57.985Z,0.50
2022-10-10T00:39:02.836Z,0.50
2022-10-10T00:44:09.360Z,0.50
2022-10-10T00:49:16.496Z,0.50
2022-10-10T00:54:22.725Z,0.40
2022-10-10T00:59:27.849Z,0.37
2022-10-10T01:04:40.542Z,0.50
2022-10-10T01:09:49.952Z,0.40
2022-10-10T01:15:02.009Z,0.50
2022-10-10T01:20:42.190Z,0.47
2022-10-10T01:25:56.997Z,0.50
2022-10-10T01:31:02.020Z,0.67
2022-10-10T01:36:12.786Z,0.60
2022-10-10T01:41:18.230Z,0.50
2022-10-10T01:46:23.392Z,0.57
2022-10-10T01:51:45.377Z,0.70
2022-10-10T01:56:56.380Z,0.57
2022-10-10T02:02:07.069Z,0.40
2022-10-10T02:07:15.674Z,0.43
2022-10-10T02:12:21.401Z,0.40
2022-10-10T02:17:27.374Z,0.60
2022-10-10T02:22:31.812Z,0.30
2022-10-10T02:27:40.530Z,0.40
2022-10-10T02:32:49.598Z,0.60
2022-10-10T02:37:55.346Z,0.60
2022-10-10T02:43:01.809Z,0.60
2022-10-10T02:48:07.318Z,0.43
2022-10-10T02:53:10.857Z,0.50
2022-10-10T02:58:14.655Z,0.50
2022-10-10T03:03:20.184Z,0.53
2022-10-10T03:08:23.708Z,0.40
2022-10-10T03:13:27.340Z,0.57
2022-10-10T03:18:33.435Z,0.40
2022-10-10T03:23:36.936Z,0.40
2022-10-10T03:28:40.973Z,0.50
2022-10-10T03:33:45.837Z,0.50
2022-10-10T03:38:49.373Z,0.57
2022-10-10T03:43:53.025Z,0.50
2022-10-10T03:48:57.949Z,0.50
2022-10-10T03:54:01.463Z,0.50
2022-10-10T03:59:06.222Z,0.50
2022-10-10T04:04:11.189Z,0.50
2022-10-10T04:09:14.663Z,0.70
2022-10-10T04:14:18.239Z,0.63
2022-10-10T04:19:23.204Z,0.47
2022-10-10T04:24:26.758Z,0.47
2022-10-10T04:29:30.385Z,0.50
2022-10-10T04:34:35.256Z,0.60
2022-10-10T04:39:38.768Z,0.53
2022-10-10T04:44:42.396Z,0.40
2022-10-10T04:49:47.396Z,0.50
2022-10-10T04:54:50.916Z,0.50
2022-10-10T04:59:54.405Z,0.60
2022-10-10T05:04:59.547Z,0.60
2022-10-10T05:10:03.306Z,0.70
2022-10-10T05:15:07.550Z,0.40
2022-10-10T05:20:12.532Z,0.60
2022-10-10T05:25:16.053Z,0.60
2022-10-10T05:30:19.951Z,0.50
2022-10-10T05:35:24.825Z,0.47
2022-10-10T05:40:28.710Z,0.70
2022-10-10T05:45:32.197Z,0.50
2022-10-10T05:50:40.237Z,0.50
2022-10-10T05:55:44.430Z,0.50
2022-10-10T06:00:49.016Z,0.43
2022-10-10T06:05:53.932Z,0.50
2022-10-10T06:11:03.739Z,0.50
2022-10-10T06:16:07.616Z,1.00
2022-10-10T06:21:14.112Z,0.60
2022-10-10T06:26:17.658Z,0.60
2022-10-10T06:31:21.108Z,0.60
2022-10-10T06:36:25.950Z,0.57
2022-10-10T06:41:29.535Z,0.70
2022-10-10T06:46:34.274Z,0.53
2022-10-10T06:51:39.309Z,0.40
2022-10-10T06:56:42.808Z,0.70
2022-10-10T07:01:46.843Z,0.60
2022-10-10T07:06:51.737Z,0.97
2022-10-10T07:11:55.238Z,0.90
2022-10-10T07:16:58.698Z,0.60
2022-10-10T07:22:03.604Z,0.90
2022-10-10T07:27:08.919Z,0.60
2022-10-10T07:32:12.608Z,0.60
2022-10-10T07:37:17.675Z,0.70
2022-10-10T07:42:21.467Z,0.67
2022-10-10T07:47:25.024Z,0.60
2022-10-10T07:52:29.858Z,1.30
2022-10-10T07:57:34.935Z,0.90
2022-10-10T08:02:38.688Z,0.93
2022-10-10T08:07:43.623Z,1.00
2022-10-10T08:12:47.159Z,0.97
2022-10-10T08:17:50.837Z,0.80
2022-10-10T08:22:55.838Z,1.13
2022-10-10T08:27:59.321Z,1.00
2022-10-10T08:33:02.805Z,0.90
2022-10-10T08:38:08.920Z,0.90
2022-10-10T08:43:23.209Z,1.00
2022-10-10T08:48:31.091Z,0.70
2022-10-10T08:53:40.061Z,0.87
2022-10-10T08:58:47.716Z,0.80
2022-10-10T09:03:53.963Z,0.87
2022-10-10T09:09:09.197Z,1.00
2022-10-10T09:14:22.952Z,1.20
2022-10-10T09:19:36.143Z,0.80
2022-10-10T09:24:47.331Z,0.90
2022-10-10T09:29:55.069Z,0.80
2022-10-10T09:35:06.325Z,0.90
2022-10-10T09:40:19.705Z,1.00
2022-10-10T09:45:29.514Z,0.80
2022-10-10T09:50:33.056Z,0.80
2022-10-10T09:55:40.672Z,0.73
2022-10-10T10:00:44.253Z,1.10
2022-10-10T10:05:55.501Z,0.80
2022-10-10T10:11:01.794Z,0.80
2022-10-10T10:16:08.846Z,0.83
2022-10-10T10:21:23.266Z,0.60
2022-10-10T10:26:43.371Z,1.07
2022-10-10T10:31:59.155Z,1.00
2022-10-10T10:37:14.709Z,0.80
2022-10-10T10:42:33.963Z,0.90
2022-10-10T10:47:48.048Z,0.70
2022-10-10T10:53:00.866Z,0.70
2022-10-10T11:05:18.450Z,0.80
2022-10-10T11:09:49.127Z,1.00
2022-10-10T11:15:00.931Z,0.70
2022-10-10T11:20:12.540Z,0.63
2022-10-10T11:25:23.764Z,0.40
2022-10-10T11:30:32.824Z,0.80
2022-10-10T11:35:40.627Z,0.70
2022-10-10T11:40:49.173Z,0.60
2022-10-10T11:46:03.245Z,0.60
2022-10-10T11:51:18.010Z,1.03
2022-10-10T11:56:29.766Z,0.70
2022-10-10T12:01:38.282Z,0.60
2022-10-10T12:06:45.653Z,0.70
2022-10-10T12:11:57.094Z,0.73
2022-10-10T12:17:02.154Z,0.80
2022-10-10T12:22:08.281Z,0.80
2022-10-10T12:27:28.399Z,0.80
2022-10-10T12:32:44.059Z,0.70
2022-10-10T12:38:10.293Z,0.80
2022-10-10T12:43:25.344Z,0.80
2022-10-10T12:48:30.329Z,0.80
2022-10-10T12:53:35.324Z,0.53
2022-10-10T12:58:42.036Z,0.80
2022-10-10T13:03:49.971Z,0.90
2022-10-10T13:08:56.390Z,0.80
2022-10-10T13:13:59.917Z,0.77
2022-10-10T13:19:04.823Z,0.80
2022-10-10T13:24:08.981Z,0.60
2022-10-10T13:29:22.024Z,0.70
2022-10-10T13:34:30.631Z,0.90
2022-10-10T13:39:38.510Z,0.73
2022-10-10T13:44:50.727Z,0.67
2022-10-10T13:49:58.892Z,0.67
2022-10-10T13:55:16.571Z,0.67
2022-10-10T14:00:22.525Z,0.80
2022-10-10T14:05:30.538Z,0.80
2022-10-10T14:10:36.961Z,0.70
2022-10-10T14:15:45.829Z,0.80
2022-10-10T14:20:51.755Z,0.67
2022-10-10T14:25:55.456Z,0.57
2022-10-10T14:31:00.448Z,0.60
2022-10-10T14:36:06.331Z,0.70
2022-10-10T14:41:13.125Z,0.57
2022-10-10T14:46:20.097Z,0.60
2022-10-10T14:51:34.337Z,0.67
2022-10-10T14:57:08.995Z,0.70
2022-10-10T15:02:05.211Z,0.40
2022-10-10T15:07:13.822Z,0.60
2022-10-10T15:12:18.059Z,0.50
2022-10-10T15:17:21.496Z,0.60
2022-10-10T15:22:27.415Z,0.63
2022-10-10T15:27:32.609Z,0.57
2022-10-10T15:32:39.963Z,0.40
2022-10-10T15:37:45.604Z,0.40
2022-10-10T15:42:49.512Z,0.40
2022-10-10T15:47:53.084Z,0.60
2022-10-10T15:52:57.941Z,0.60
2022-10-10T15:58:03.906Z,0.50
2022-10-10T16:03:08.170Z,0.50
2022-10-10T16:08:13.349Z,0.70
2022-10-10T16:13:16.920Z,0.63
2022-10-10T16:18:20.406Z,0.70
2022-10-10T16:23:26.015Z,0.70
2022-10-10T16:28:29.833Z,0.60
2022-10-10T16:33:34.156Z,0.63
2022-10-10T16:38:39.419Z,0.57
2022-10-10T16:43:45.152Z,0.70
2022-10-10T16:48:49.097Z,0.60
2022-10-10T16:53:54.054Z,0.60
2022-10-10T16:58:59.009Z,0.70
2022-10-10T17:04:04.220Z,0.60
2022-10-10T17:09:11.292Z,0.87
2022-10-10T17:14:16.126Z,0.70
2022-10-10T17:19:19.722Z,0.80
2022-10-10T17:24:24.635Z,0.50
2022-10-10T17:29:28.147Z,0.70
2022-10-10T17:34:31.634Z,0.60
2022-10-10T17:39:36.676Z,0.60
2022-10-10T17:44:46.497Z,0.67
2022-10-10T17:49:52.540Z,0.53
2022-10-10T17:54:57.388Z,0.60
2022-10-10T18:00:00.908Z,0.43
2022-10-10T18:05:04.536Z,0.70
2022-10-10T18:10:10.370Z,0.60
2022-10-10T18:15:13.946Z,0.73
2022-10-10T18:20:17.576Z,0.50
2022-10-10T18:25:25.043Z,0.70
2022-10-10T18:30:29.846Z,0.90
2022-10-10T18:35:33.377Z,0.57
2022-10-10T18:40:38.250Z,0.60
2022-10-10T18:45:41.750Z,0.90
2022-10-10T18:50:45.237Z,0.70
2022-10-10T18:55:57.294Z,0.90
2022-10-10T19:01:01.421Z,0.83
2022-10-10T19:06:06.750Z,0.80
2022-10-10T19:11:20.462Z,0.70
2022-10-10T19:16:24.170Z,1.00
2022-10-10T19:21:30.948Z,1.03
2022-10-10T19:26:36.239Z,1.20
2022-10-10T19:31:41.018Z,1.50
2022-10-10T19:36:44.927Z,1.03
2022-10-10T19:41:49.841Z,1.03
2022-10-10T19:46:54.848Z,1.00
2022-10-10T19:51:58.326Z,0.70
2022-10-10T19:57:04.315Z,0.60
2022-10-10T20:02:08.264Z,0.40
2022-10-10T20:07:11.743Z,0.50
2022-10-10T20:12:16.622Z,0.60
2022-10-10T20:17:20.264Z,0.60
2022-10-10T20:22:24.011Z,0.40
2022-10-10T20:27:31.264Z,0.40
2022-10-10T20:32:35.064Z,0.40
2022-10-10T20:37:38.575Z,0.40
2022-10-10T20:42:43.450Z,0.80
2022-10-10T20:47:47.061Z,0.40
2022-10-10T20:52:50.532Z,0.37
2022-10-10T20:57:55.388Z,0.20
2022-10-10T21:02:58.865Z,0.50
2022-10-10T21:08:02.705Z,0.40
2022-10-10T21:13:07.566Z,0.30
2022-10-10T21:18:11.141Z,0.30
2022-10-10T21:23:14.733Z,0.50
2022-10-10T21:28:21.102Z,0.37
2022-10-10T21:33:24.754Z,0.33
2022-10-10T21:38:28.279Z,0.40
2022-10-10T21:43:33.209Z,0.33
2022-10-10T21:48:37.053Z,0.40
2022-10-10T21:53:40.524Z,0.50
2022-10-10T21:58:46.207Z,0.20
2022-10-10T22:03:51.778Z,0.40
2022-10-10T22:08:58.873Z,0.40
2022-10-10T22:14:04.592Z,0.37
2022-10-10T22:19:08.411Z,0.40
2022-10-10T22:24:11.883Z,0.20
2022-10-10T22:29:16.807Z,0.50
2022-10-10T22:34:20.336Z,0.40
2022-10-10T22:39:23.841Z,0.30
2022-10-10T22:44:29.143Z,0.30
2022-10-10T22:49:34.880Z,0.30
2022-10-10T22:54:38.389Z,0.23
2022-10-10T22:59:43.505Z,0.60
2022-10-10T23:04:47.238Z,0.40
2022-10-10T23:09:50.736Z,0.40
2022-10-10T23:14:55.621Z,0.37
2022-10-10T23:19:59.133Z,0.30
2022-10-10T23:25:02.636Z,0.30
2022-10-10T23:30:08.689Z,0.30
2022-10-10T23:35:13.540Z,0.40
2022-10-10T23:40:17.202Z,0.50
2022-10-10T23:45:22.485Z,0.33
2022-10-10T23:50:26.034Z,0.40
2022-10-10T23:55:29.574Z,0.30
